sensor_id;sensor_type;location;lat;lon;timestamp;P1;durP1;ratioP1;P2;durP2;ratioP2
38435;SDS011;24220;48.168;14.024;2023-06-26T00:00:04;5.65;;;5.07;;
38435;SDS011;24220;48.168;14.024;2023-06-26T00:02:34;6.80;;;5.32;;
38435;SDS011;24220;48.168;14.024;2023-06-26T00:05:04;7.07;;;6.30;;
38435;SDS011;24220;48.168;14.024;2023-06-26T00:07:34;6.85;;;6.22;;
38435;SDS011;24220;48.168;14.024;2023-06-26T00:10:04;8.05;;;6.47;;
38435;SDS011;24220;48.168;14.024;2023-06-26T00:12:32;6.25;;;5.65;;
38435;SDS011;24220;48.168;14.024;2023-06-26T00:14:59;8.93;;;5.57;;
38435;SDS011;24220;48.168;14.024;2023-06-26T00:17:30;6.30;;;5.70;;
38435;SDS011;24220;48.168;14.024;2023-06-26T00:19:57;6.78;;;6.10;;
38435;SDS011;24220;48.168;14.024;2023-06-26T00:22:24;6.90;;;6.20;;
38435;SDS011;24220;48.168;14.024;2023-06-26T00:24:52;6.93;;;6.25;;
38435;SDS011;24220;48.168;14.024;2023-06-26T00:27:20;6.95;;;5.72;;
38435;SDS011;24220;48.168;14.024;2023-06-26T00:29:47;7.03;;;6.32;;
38435;SDS011;24220;48.168;14.024;2023-06-26T00:32:14;6.05;;;5.45;;
38435;SDS011;24220;48.168;14.024;2023-06-26T00:34:44;5.80;;;5.20;;
38435;SDS011;24220;48.168;14.024;2023-06-26T00:37:15;6.45;;;5.85;;
38435;SDS011;24220;48.168;14.024;2023-06-26T00:39:43;6.28;;;5.68;;
38435;SDS011;24220;48.168;14.024;2023-06-26T00:42:10;7.15;;;5.97;;
38435;SDS011;24220;48.168;14.024;2023-06-26T00:44:39;6.30;;;5.68;;
38435;SDS011;24220;48.168;14.024;2023-06-26T00:47:07;6.38;;;5.78;;
38435;SDS011;24220;48.168;14.024;2023-06-26T00:49:35;6.78;;;5.78;;
38435;SDS011;24220;48.168;14.024;2023-06-26T00:52:02;8.35;;;6.25;;
38435;SDS011;24220;48.168;14.024;2023-06-26T00:54:30;6.97;;;5.90;;
38435;SDS011;24220;48.168;14.024;2023-06-26T00:56:58;6.45;;;5.75;;
38435;SDS011;24220;48.168;14.024;2023-06-26T00:59:26;5.97;;;5.38;;
38435;SDS011;24220;48.168;14.024;2023-06-26T01:01:53;6.30;;;5.70;;
38435;SDS011;24220;48.168;14.024;2023-06-26T01:04:21;7.30;;;5.78;;
38435;SDS011;24220;48.168;14.024;2023-06-26T01:06:48;6.22;;;5.63;;
38435;SDS011;24220;48.168;14.024;2023-06-26T01:09:19;6.68;;;5.97;;
38435;SDS011;24220;48.168;14.024;2023-06-26T01:11:47;6.88;;;6.15;;
38435;SDS011;24220;48.168;14.024;2023-06-26T01:14:15;7.75;;;6.30;;
38435;SDS011;24220;48.168;14.024;2023-06-26T01:16:44;7.28;;;6.07;;
38435;SDS011;24220;48.168;14.024;2023-06-26T01:19:23;6.57;;;5.93;;
38435;SDS011;24220;48.168;14.024;2023-06-26T01:24:44;7.25;;;6.05;;
38435;SDS011;24220;48.168;14.024;2023-06-26T01:27:20;8.00;;;7.20;;
38435;SDS011;24220;48.168;14.024;2023-06-26T01:29:49;8.45;;;7.50;;
38435;SDS011;24220;48.168;14.024;2023-06-26T01:32:18;6.30;;;5.68;;
38435;SDS011;24220;48.168;14.024;2023-06-26T01:34:46;7.45;;;6.53;;
38435;SDS011;24220;48.168;14.024;2023-06-26T01:37:13;7.40;;;6.63;;
38435;SDS011;24220;48.168;14.024;2023-06-26T01:39:40;6.97;;;6.32;;
38435;SDS011;24220;48.168;14.024;2023-06-26T01:42:08;6.97;;;5.90;;
38435;SDS011;24220;48.168;14.024;2023-06-26T01:44:37;9.48;;;7.32;;
38435;SDS011;24220;48.168;14.024;2023-06-26T01:47:14;7.55;;;6.82;;
38435;SDS011;24220;48.168;14.024;2023-06-26T01:50:21;8.27;;;6.88;;
38435;SDS011;24220;48.168;14.024;2023-06-26T01:55:40;6.90;;;6.25;;
38435;SDS011;24220;48.168;14.024;2023-06-26T01:58:13;7.97;;;7.18;;
38435;SDS011;24220;48.168;14.024;2023-06-26T02:00:45;7.38;;;6.55;;
38435;SDS011;24220;48.168;14.024;2023-06-26T02:03:13;7.10;;;6.40;;
38435;SDS011;24220;48.168;14.024;2023-06-26T02:05:40;7.03;;;6.32;;
38435;SDS011;24220;48.168;14.024;2023-06-26T02:08:09;7.30;;;6.55;;
38435;SDS011;24220;48.168;14.024;2023-06-26T02:10:36;8.10;;;6.40;;
38435;SDS011;24220;48.168;14.024;2023-06-26T02:13:04;10.18;;;6.57;;
38435;SDS011;24220;48.168;14.024;2023-06-26T02:15:32;7.22;;;6.38;;
38435;SDS011;24220;48.168;14.024;2023-06-26T02:17:59;7.97;;;6.45;;
38435;SDS011;24220;48.168;14.024;2023-06-26T02:20:26;6.38;;;5.47;;
38435;SDS011;24220;48.168;14.024;2023-06-26T02:22:54;5.90;;;5.40;;
38435;SDS011;24220;48.168;14.024;2023-06-26T02:25:23;6.13;;;5.55;;
38435;SDS011;24220;48.168;14.024;2023-06-26T02:27:51;7.78;;;6.25;;
38435;SDS011;24220;48.168;14.024;2023-06-26T02:30:21;9.13;;;6.10;;
38435;SDS011;24220;48.168;14.024;2023-06-26T02:32:49;6.53;;;5.75;;
38435;SDS011;24220;48.168;14.024;2023-06-26T02:35:18;7.68;;;6.65;;
38435;SDS011;24220;48.168;14.024;2023-06-26T02:37:45;7.38;;;6.07;;
38435;SDS011;24220;48.168;14.024;2023-06-26T02:40:13;7.93;;;7.13;;
38435;SDS011;24220;48.168;14.024;2023-06-26T02:42:40;7.55;;;6.35;;
38435;SDS011;24220;48.168;14.024;2023-06-26T02:45:10;7.25;;;5.85;;
38435;SDS011;24220;48.168;14.024;2023-06-26T02:47:37;6.78;;;6.07;;
38435;SDS011;24220;48.168;14.024;2023-06-26T02:50:07;8.95;;;6.55;;
38435;SDS011;24220;48.168;14.024;2023-06-26T02:52:34;6.22;;;5.63;;
38435;SDS011;24220;48.168;14.024;2023-06-26T02:55:01;6.57;;;5.95;;
38435;SDS011;24220;48.168;14.024;2023-06-26T02:57:30;7.13;;;5.85;;
38435;SDS011;24220;48.168;14.024;2023-06-26T02:59:57;7.60;;;6.22;;
38435;SDS011;24220;48.168;14.024;2023-06-26T03:02:24;8.32;;;6.15;;
38435;SDS011;24220;48.168;14.024;2023-06-26T03:04:52;7.28;;;6.47;;
38435;SDS011;24220;48.168;14.024;2023-06-26T03:07:19;6.90;;;6.20;;
38435;SDS011;24220;48.168;14.024;2023-06-26T03:09:47;7.18;;;6.47;;
38435;SDS011;24220;48.168;14.024;2023-06-26T03:12:16;6.13;;;5.60;;
38435;SDS011;24220;48.168;14.024;2023-06-26T03:14:43;7.68;;;6.72;;
38435;SDS011;24220;48.168;14.024;2023-06-26T03:17:13;6.72;;;6.03;;
38435;SDS011;24220;48.168;14.024;2023-06-26T03:19:40;6.57;;;5.88;;
38435;SDS011;24220;48.168;14.024;2023-06-26T03:22:08;8.30;;;6.80;;
38435;SDS011;24220;48.168;14.024;2023-06-26T03:24:35;7.75;;;6.10;;
38435;SDS011;24220;48.168;14.024;2023-06-26T03:27:02;6.10;;;5.50;;
38435;SDS011;24220;48.168;14.024;2023-06-26T03:29:30;7.00;;;5.97;;
38435;SDS011;24220;48.168;14.024;2023-06-26T03:32:00;7.82;;;6.35;;
38435;SDS011;24220;48.168;14.024;2023-06-26T03:34:27;6.68;;;6.03;;
38435;SDS011;24220;48.168;14.024;2023-06-26T03:36:57;7.47;;;6.68;;
38435;SDS011;24220;48.168;14.024;2023-06-26T03:39:26;8.20;;;6.63;;
38435;SDS011;24220;48.168;14.024;2023-06-26T03:41:54;8.43;;;6.25;;
38435;SDS011;24220;48.168;14.024;2023-06-26T03:44:27;6.97;;;6.28;;
38435;SDS011;24220;48.168;14.024;2023-06-26T03:46:54;8.45;;;6.75;;
38435;SDS011;24220;48.168;14.024;2023-06-26T03:49:22;6.78;;;5.90;;
38435;SDS011;24220;48.168;14.024;2023-06-26T03:51:51;6.88;;;6.18;;
38435;SDS011;24220;48.168;14.024;2023-06-26T03:54:21;7.88;;;6.10;;
38435;SDS011;24220;48.168;14.024;2023-06-26T03:56:50;7.35;;;6.35;;
38435;SDS011;24220;48.168;14.024;2023-06-26T03:59:20;7.22;;;6.40;;
38435;SDS011;24220;48.168;14.024;2023-06-26T04:01:47;9.52;;;8.10;;
38435;SDS011;24220;48.168;14.024;2023-06-26T04:04:18;8.60;;;6.90;;
38435;SDS011;24220;48.168;14.024;2023-06-26T04:06:46;7.07;;;6.38;;
38435;SDS011;24220;48.168;14.024;2023-06-26T04:09:14;7.18;;;5.93;;
38435;SDS011;24220;48.168;14.024;2023-06-26T04:11:42;6.57;;;5.88;;
38435;SDS011;24220;48.168;14.024;2023-06-26T04:14:09;7.63;;;6.82;;
38435;SDS011;24220;48.168;14.024;2023-06-26T04:16:39;7.57;;;6.40;;
38435;SDS011;24220;48.168;14.024;2023-06-26T04:19:06;7.95;;;6.80;;
38435;SDS011;24220;48.168;14.024;2023-06-26T04:21:34;6.90;;;6.10;;
38435;SDS011;24220;48.168;14.024;2023-06-26T04:24:02;7.32;;;6.50;;
38435;SDS011;24220;48.168;14.024;2023-06-26T04:26:31;7.03;;;6.28;;
38435;SDS011;24220;48.168;14.024;2023-06-26T04:29:03;8.38;;;6.60;;
38435;SDS011;24220;48.168;14.024;2023-06-26T04:31:30;7.72;;;6.15;;
38435;SDS011;24220;48.168;14.024;2023-06-26T04:33:58;7.20;;;6.50;;
38435;SDS011;24220;48.168;14.024;2023-06-26T04:36:26;6.43;;;5.80;;
38435;SDS011;24220;48.168;14.024;2023-06-26T04:38:57;7.67;;;6.00;;
38435;SDS011;24220;48.168;14.024;2023-06-26T04:41:25;8.10;;;6.57;;
38435;SDS011;24220;48.168;14.024;2023-06-26T04:43:52;6.93;;;5.72;;
38435;SDS011;24220;48.168;14.024;2023-06-26T04:46:20;6.70;;;5.80;;
38435;SDS011;24220;48.168;14.024;2023-06-26T04:48:47;6.68;;;5.97;;
38435;SDS011;24220;48.168;14.024;2023-06-26T04:51:14;6.90;;;5.95;;
38435;SDS011;24220;48.168;14.024;2023-06-26T04:53:42;5.90;;;5.30;;
38435;SDS011;24220;48.168;14.024;2023-06-26T04:56:10;8.10;;;6.07;;
38435;SDS011;24220;48.168;14.024;2023-06-26T04:58:40;6.75;;;5.32;;
38435;SDS011;24220;48.168;14.024;2023-06-26T05:01:07;5.97;;;5.38;;
38435;SDS011;24220;48.168;14.024;2023-06-26T05:03:34;8.68;;;5.47;;
38435;SDS011;24220;48.168;14.024;2023-06-26T05:06:06;7.03;;;6.30;;
38435;SDS011;24220;48.168;14.024;2023-06-26T05:08:35;7.10;;;5.65;;
38435;SDS011;24220;48.168;14.024;2023-06-26T05:11:03;7.38;;;5.50;;
38435;SDS011;24220;48.168;14.024;2023-06-26T05:13:30;7.80;;;5.60;;
38435;SDS011;24220;48.168;14.024;2023-06-26T05:15:57;7.50;;;6.70;;
38435;SDS011;24220;48.168;14.024;2023-06-26T05:18:25;6.30;;;5.70;;
38435;SDS011;24220;48.168;14.024;2023-06-26T05:20:52;6.82;;;5.60;;
38435;SDS011;24220;48.168;14.024;2023-06-26T05:23:20;7.45;;;6.00;;
38435;SDS011;24220;48.168;14.024;2023-06-26T05:25:52;7.20;;;5.95;;
38435;SDS011;24220;48.168;14.024;2023-06-26T05:28:23;6.07;;;5.47;;
38435;SDS011;24220;48.168;14.024;2023-06-26T05:30:56;6.10;;;5.50;;
38435;SDS011;24220;48.168;14.024;2023-06-26T05:33:27;6.57;;;5.70;;
38435;SDS011;24220;48.168;14.024;2023-06-26T05:35:55;7.05;;;6.35;;
38435;SDS011;24220;48.168;14.024;2023-06-26T05:38:26;10.63;;;7.40;;
38435;SDS011;24220;48.168;14.024;2023-06-26T05:40:53;6.80;;;6.00;;
38435;SDS011;24220;48.168;14.024;2023-06-26T05:43:21;6.50;;;5.80;;
38435;SDS011;24220;48.168;14.024;2023-06-26T05:45:56;6.55;;;5.93;;
38435;SDS011;24220;48.168;14.024;2023-06-26T05:48:24;8.82;;;6.25;;
38435;SDS011;24220;48.168;14.024;2023-06-26T05:50:52;6.13;;;5.50;;
38435;SDS011;24220;48.168;14.024;2023-06-26T05:53:19;8.15;;;5.63;;
38435;SDS011;24220;48.168;14.024;2023-06-26T05:55:52;6.72;;;6.03;;
38435;SDS011;24220;48.168;14.024;2023-06-26T05:58:20;5.88;;;5.28;;
38435;SDS011;24220;48.168;14.024;2023-06-26T06:00:48;7.45;;;6.38;;
38435;SDS011;24220;48.168;14.024;2023-06-26T06:03:17;5.65;;;5.15;;
38435;SDS011;24220;48.168;14.024;2023-06-26T06:05:47;6.03;;;5.43;;
38435;SDS011;24220;48.168;14.024;2023-06-26T06:08:15;5.95;;;5.35;;
38435;SDS011;24220;48.168;14.024;2023-06-26T06:10:44;8.32;;;6.07;;
38435;SDS011;24220;48.168;14.024;2023-06-26T06:13:11;6.13;;;5.53;;
38435;SDS011;24220;48.168;14.024;2023-06-26T06:15:43;6.75;;;5.45;;
38435;SDS011;24220;48.168;14.024;2023-06-26T06:18:13;6.60;;;5.97;;
38435;SDS011;24220;48.168;14.024;2023-06-26T06:20:40;6.13;;;5.53;;
38435;SDS011;24220;48.168;14.024;2023-06-26T06:23:08;5.90;;;5.30;;
38435;SDS011;24220;48.168;14.024;2023-06-26T06:25:38;7.40;;;5.38;;
38435;SDS011;24220;48.168;14.024;2023-06-26T06:28:07;6.60;;;5.32;;
38435;SDS011;24220;48.168;14.024;2023-06-26T06:30:37;5.20;;;4.70;;
38435;SDS011;24220;48.168;14.024;2023-06-26T06:33:12;8.65;;;5.45;;
38435;SDS011;24220;48.168;14.024;2023-06-26T06:35:40;7.07;;;5.88;;
38435;SDS011;24220;48.168;14.024;2023-06-26T06:38:07;5.68;;;5.13;;
38435;SDS011;24220;48.168;14.024;2023-06-26T06:40:35;6.43;;;5.18;;
38435;SDS011;24220;48.168;14.024;2023-06-26T06:43:03;8.52;;;5.82;;
38435;SDS011;24220;48.168;14.024;2023-06-26T06:45:30;5.72;;;5.13;;
38435;SDS011;24220;48.168;14.024;2023-06-26T06:48:00;6.03;;;4.80;;
38435;SDS011;24220;48.168;14.024;2023-06-26T06:50:27;5.95;;;5.18;;
38435;SDS011;24220;48.168;14.024;2023-06-26T06:52:56;5.80;;;5.22;;
38435;SDS011;24220;48.168;14.024;2023-06-26T06:55:24;5.28;;;4.78;;
38435;SDS011;24220;48.168;14.024;2023-06-26T06:57:52;5.05;;;4.55;;
38435;SDS011;24220;48.168;14.024;2023-06-26T07:00:19;5.13;;;4.63;;
38435;SDS011;24220;48.168;14.024;2023-06-26T07:02:47;4.88;;;4.35;;
38435;SDS011;24220;48.168;14.024;2023-06-26T07:05:14;5.88;;;4.60;;
38435;SDS011;24220;48.168;14.024;2023-06-26T07:07:44;5.95;;;4.88;;
38435;SDS011;24220;48.168;14.024;2023-06-26T07:10:14;6.43;;;4.45;;
38435;SDS011;24220;48.168;14.024;2023-06-26T07:12:41;5.63;;;4.88;;
38435;SDS011;24220;48.168;14.024;2023-06-26T07:15:10;5.53;;;4.78;;
38435;SDS011;24220;48.168;14.024;2023-06-26T07:17:38;5.85;;;4.90;;
38435;SDS011;24220;48.168;14.024;2023-06-26T07:20:06;5.05;;;4.50;;
38435;SDS011;24220;48.168;14.024;2023-06-26T07:22:42;6.63;;;5.50;;
38435;SDS011;24220;48.168;14.024;2023-06-26T07:25:12;4.95;;;4.53;;
38435;SDS011;24220;48.168;14.024;2023-06-26T07:27:40;5.07;;;4.57;;
38435;SDS011;24220;48.168;14.024;2023-06-26T07:30:10;5.28;;;4.60;;
38435;SDS011;24220;48.168;14.024;2023-06-26T07:32:38;4.85;;;4.35;;
38435;SDS011;24220;48.168;14.024;2023-06-26T07:35:07;5.63;;;5.03;;
38435;SDS011;24220;48.168;14.024;2023-06-26T07:37:35;6.03;;;4.53;;
38435;SDS011;24220;48.168;14.024;2023-06-26T07:40:02;5.03;;;4.53;;
38435;SDS011;24220;48.168;14.024;2023-06-26T07:42:33;6.67;;;5.67;;
38435;SDS011;24220;48.168;14.024;2023-06-26T07:45:00;6.55;;;5.75;;
38435;SDS011;24220;48.168;14.024;2023-06-26T07:47:28;5.10;;;4.60;;
38435;SDS011;24220;48.168;14.024;2023-06-26T07:49:56;4.85;;;4.32;;
38435;SDS011;24220;48.168;14.024;2023-06-26T07:52:23;5.10;;;4.60;;
38435;SDS011;24220;48.168;14.024;2023-06-26T07:54:50;6.15;;;5.55;;
38435;SDS011;24220;48.168;14.024;2023-06-26T07:57:18;6.90;;;5.50;;
38435;SDS011;24220;48.168;14.024;2023-06-26T07:59:48;7.30;;;6.00;;
38435;SDS011;24220;48.168;14.024;2023-06-26T08:02:17;5.65;;;5.07;;
38435;SDS011;24220;48.168;14.024;2023-06-26T08:04:46;5.65;;;5.05;;
38435;SDS011;24220;48.168;14.024;2023-06-26T08:07:13;5.72;;;5.13;;
38435;SDS011;24220;48.168;14.024;2023-06-26T08:09:41;7.82;;;5.63;;
38435;SDS011;24220;48.168;14.024;2023-06-26T08:12:09;7.30;;;6.38;;
38435;SDS011;24220;48.168;14.024;2023-06-26T08:14:39;8.82;;;7.00;;
38435;SDS011;24220;48.168;14.024;2023-06-26T08:17:06;7.47;;;6.72;;
38435;SDS011;24220;48.168;14.024;2023-06-26T08:19:38;6.30;;;5.35;;
38435;SDS011;24220;48.168;14.024;2023-06-26T08:22:05;7.03;;;5.57;;
38435;SDS011;24220;48.168;14.024;2023-06-26T08:24:32;7.47;;;6.72;;
38435;SDS011;24220;48.168;14.024;2023-06-26T08:27:02;7.15;;;6.45;;
38435;SDS011;24220;48.168;14.024;2023-06-26T08:29:30;5.80;;;5.30;;
38435;SDS011;24220;48.168;14.024;2023-06-26T08:31:59;6.40;;;5.72;;
38435;SDS011;24220;48.168;14.024;2023-06-26T08:36:56;8.68;;;6.18;;
38435;SDS011;24220;48.168;14.024;2023-06-26T08:39:23;7.97;;;6.28;;
38435;SDS011;24220;48.168;14.024;2023-06-26T08:41:50;7.13;;;6.38;;
38435;SDS011;24220;48.168;14.024;2023-06-26T08:44:20;5.80;;;5.30;;
38435;SDS011;24220;48.168;14.024;2023-06-26T08:46:53;6.82;;;4.97;;
38435;SDS011;24220;48.168;14.024;2023-06-26T08:49:21;5.53;;;4.97;;
38435;SDS011;24220;48.168;14.024;2023-06-26T08:52:06;6.57;;;5.55;;
38435;SDS011;24220;48.168;14.024;2023-06-26T08:54:45;6.22;;;5.00;;
38435;SDS011;24220;48.168;14.024;2023-06-26T08:57:15;5.68;;;5.18;;
38435;SDS011;24220;48.168;14.024;2023-06-26T08:59:46;5.85;;;5.30;;
38435;SDS011;24220;48.168;14.024;2023-06-26T09:02:14;6.38;;;5.78;;
38435;SDS011;24220;48.168;14.024;2023-06-26T09:04:42;5.43;;;4.90;;
38435;SDS011;24220;48.168;14.024;2023-06-26T09:07:10;6.80;;;5.80;;
38435;SDS011;24220;48.168;14.024;2023-06-26T09:09:39;5.60;;;5.03;;
38435;SDS011;24220;48.168;14.024;2023-06-26T09:12:08;5.43;;;4.93;;
38435;SDS011;24220;48.168;14.024;2023-06-26T09:14:41;5.25;;;4.75;;
38435;SDS011;24220;48.168;14.024;2023-06-26T09:17:09;5.82;;;5.22;;
38435;SDS011;24220;48.168;14.024;2023-06-26T09:19:36;6.00;;;5.40;;
38435;SDS011;24220;48.168;14.024;2023-06-26T09:22:10;6.05;;;5.30;;
38435;SDS011;24220;48.168;14.024;2023-06-26T09:24:41;5.90;;;4.68;;
38435;SDS011;24220;48.168;14.024;2023-06-26T09:27:09;6.03;;;5.00;;
38435;SDS011;24220;48.168;14.024;2023-06-26T09:29:37;5.82;;;5.20;;
38435;SDS011;24220;48.168;14.024;2023-06-26T09:32:05;4.95;;;4.10;;
38435;SDS011;24220;48.168;14.024;2023-06-26T09:37:07;6.45;;;4.95;;
38435;SDS011;24220;48.168;14.024;2023-06-26T09:39:35;6.15;;;5.07;;
38435;SDS011;24220;48.168;14.024;2023-06-26T09:42:02;5.40;;;4.88;;
38435;SDS011;24220;48.168;14.024;2023-06-26T09:44:33;5.10;;;4.60;;
38435;SDS011;24220;48.168;14.024;2023-06-26T09:47:03;5.65;;;5.05;;
38435;SDS011;24220;48.168;14.024;2023-06-26T09:49:31;5.47;;;4.97;;
38435;SDS011;24220;48.168;14.024;2023-06-26T09:51:59;5.43;;;4.80;;
38435;SDS011;24220;48.168;14.024;2023-06-26T09:54:28;5.07;;;4.57;;
38435;SDS011;24220;48.168;14.024;2023-06-26T09:57:06;5.38;;;4.88;;
38435;SDS011;24220;48.168;14.024;2023-06-26T09:59:35;5.38;;;4.88;;
38435;SDS011;24220;48.168;14.024;2023-06-26T10:02:02;6.22;;;5.72;;
38435;SDS011;24220;48.168;14.024;2023-06-26T10:04:30;6.30;;;5.68;;
38435;SDS011;24220;48.168;14.024;2023-06-26T10:06:59;5.65;;;4.93;;
38435;SDS011;24220;48.168;14.024;2023-06-26T10:09:31;6.13;;;5.53;;
38435;SDS011;24220;48.168;14.024;2023-06-26T10:12:02;5.47;;;4.97;;
38435;SDS011;24220;48.168;14.024;2023-06-26T10:14:39;4.65;;;4.25;;
38435;SDS011;24220;48.168;14.024;2023-06-26T10:17:14;4.60;;;4.20;;
38435;SDS011;24220;48.168;14.024;2023-06-26T10:19:45;5.68;;;4.90;;
38435;SDS011;24220;48.168;14.024;2023-06-26T10:22:17;5.05;;;4.57;;
38435;SDS011;24220;48.168;14.024;2023-06-26T10:24:47;5.03;;;4.30;;
38435;SDS011;24220;48.168;14.024;2023-06-26T10:27:17;6.25;;;5.10;;
38435;SDS011;24220;48.168;14.024;2023-06-26T10:29:49;6.63;;;4.75;;
38435;SDS011;24220;48.168;14.024;2023-06-26T10:32:20;5.35;;;4.85;;
38435;SDS011;24220;48.168;14.024;2023-06-26T10:34:50;4.93;;;4.50;;
38435;SDS011;24220;48.168;14.024;2023-06-26T10:37:18;5.32;;;4.82;;
38435;SDS011;24220;48.168;14.024;2023-06-26T10:39:46;6.38;;;5.05;;
38435;SDS011;24220;48.168;14.024;2023-06-26T10:42:16;6.10;;;5.50;;
38435;SDS011;24220;48.168;14.024;2023-06-26T10:44:46;4.97;;;4.50;;
38435;SDS011;24220;48.168;14.024;2023-06-26T10:47:30;5.40;;;4.85;;
38435;SDS011;24220;48.168;14.024;2023-06-26T10:55:41;5.00;;;4.53;;
38435;SDS011;24220;48.168;14.024;2023-06-26T11:03:43;4.60;;;4.20;;
38435;SDS011;24220;48.168;14.024;2023-06-26T11:06:15;4.43;;;4.00;;
38435;SDS011;24220;48.168;14.024;2023-06-26T11:08:48;4.60;;;4.18;;
38435;SDS011;24220;48.168;14.024;2023-06-26T11:11:22;5.32;;;4.65;;
38435;SDS011;24220;48.168;14.024;2023-06-26T11:14:24;5.07;;;3.92;;
38435;SDS011;24220;48.168;14.024;2023-06-26T11:16:55;5.53;;;4.63;;
38435;SDS011;24220;48.168;14.024;2023-06-26T11:19:24;4.50;;;4.13;;
38435;SDS011;24220;48.168;14.024;2023-06-26T11:22:03;5.13;;;4.55;;
38435;SDS011;24220;48.168;14.024;2023-06-26T11:24:31;4.40;;;4.00;;
38435;SDS011;24220;48.168;14.024;2023-06-26T11:27:00;4.88;;;4.43;;
38435;SDS011;24220;48.168;14.024;2023-06-26T11:29:29;4.57;;;4.18;;
38435;SDS011;24220;48.168;14.024;2023-06-26T11:32:01;5.28;;;4.75;;
38435;SDS011;24220;48.168;14.024;2023-06-26T11:34:32;4.32;;;3.92;;
38435;SDS011;24220;48.168;14.024;2023-06-26T11:37:00;4.50;;;4.10;;
38435;SDS011;24220;48.168;14.024;2023-06-26T11:39:31;4.30;;;3.90;;
38435;SDS011;24220;48.168;14.024;2023-06-26T11:41:59;4.60;;;4.20;;
38435;SDS011;24220;48.168;14.024;2023-06-26T11:44:31;4.63;;;4.13;;
38435;SDS011;24220;48.168;14.024;2023-06-26T11:47:04;4.78;;;4.28;;
38435;SDS011;24220;48.168;14.024;2023-06-26T11:49:34;4.25;;;3.85;;
38435;SDS011;24220;48.168;14.024;2023-06-26T11:52:02;4.22;;;3.80;;
38435;SDS011;24220;48.168;14.024;2023-06-26T11:54:30;4.20;;;3.80;;
38435;SDS011;24220;48.168;14.024;2023-06-26T11:56:58;4.97;;;4.47;;
38435;SDS011;24220;48.168;14.024;2023-06-26T11:59:35;4.35;;;3.95;;
38435;SDS011;24220;48.168;14.024;2023-06-26T12:02:07;3.92;;;3.53;;
38435;SDS011;24220;48.168;14.024;2023-06-26T12:04:40;4.00;;;3.60;;
38435;SDS011;24220;48.168;14.024;2023-06-26T12:07:10;4.25;;;3.72;;
38435;SDS011;24220;48.168;14.024;2023-06-26T12:09:39;4.60;;;4.20;;
38435;SDS011;24220;48.168;14.024;2023-06-26T12:12:15;4.47;;;4.07;;
38435;SDS011;24220;48.168;14.024;2023-06-26T12:14:44;4.78;;;4.28;;
38435;SDS011;24220;48.168;14.024;2023-06-26T12:17:14;4.60;;;4.20;;
38435;SDS011;24220;48.168;14.024;2023-06-26T12:19:46;4.47;;;4.07;;
38435;SDS011;24220;48.168;14.024;2023-06-26T12:22:17;4.80;;;4.40;;
38435;SDS011;24220;48.168;14.024;2023-06-26T12:24:45;5.07;;;4.57;;
38435;SDS011;24220;48.168;14.024;2023-06-26T12:27:14;5.20;;;3.95;;
38435;SDS011;24220;48.168;14.024;2023-06-26T12:29:51;4.57;;;4.18;;
38435;SDS011;24220;48.168;14.024;2023-06-26T12:32:24;4.80;;;4.03;;
38435;SDS011;24220;48.168;14.024;2023-06-26T12:34:56;4.47;;;3.95;;
38435;SDS011;24220;48.168;14.024;2023-06-26T12:37:27;4.10;;;3.80;;
38435;SDS011;24220;48.168;14.024;2023-06-26T12:39:55;4.05;;;3.65;;
38435;SDS011;24220;48.168;14.024;2023-06-26T12:42:28;4.25;;;3.85;;
38435;SDS011;24220;48.168;14.024;2023-06-26T12:44:59;4.75;;;3.22;;
38435;SDS011;24220;48.168;14.024;2023-06-26T12:48:06;4.40;;;4.00;;
38435;SDS011;24220;48.168;14.024;2023-06-26T12:50:38;4.07;;;3.63;;
38435;SDS011;24220;48.168;14.024;2023-06-26T12:53:15;4.13;;;3.83;;
38435;SDS011;24220;48.168;14.024;2023-06-26T12:55:42;4.35;;;3.95;;
38435;SDS011;24220;48.168;14.024;2023-06-26T12:58:09;4.47;;;4.07;;
38435;SDS011;24220;48.168;14.024;2023-06-26T13:00:41;4.30;;;3.90;;
38435;SDS011;24220;48.168;14.024;2023-06-26T13:03:09;3.95;;;3.65;;
38435;SDS011;24220;48.168;14.024;2023-06-26T13:05:41;4.18;;;3.78;;
38435;SDS011;24220;48.168;14.024;2023-06-26T13:08:11;4.30;;;3.90;;
38435;SDS011;24220;48.168;14.024;2023-06-26T13:10:38;4.55;;;3.47;;
38435;SDS011;24220;48.168;14.024;2023-06-26T13:13:07;5.75;;;4.07;;
38435;SDS011;24220;48.168;14.024;2023-06-26T13:15:35;4.32;;;3.92;;
38435;SDS011;24220;48.168;14.024;2023-06-26T13:18:02;3.72;;;3.42;;
38435;SDS011;24220;48.168;14.024;2023-06-26T13:20:32;3.55;;;3.25;;
38435;SDS011;24220;48.168;14.024;2023-06-26T13:23:02;3.57;;;3.27;;
38435;SDS011;24220;48.168;14.024;2023-06-26T13:28:00;5.75;;;3.65;;
38435;SDS011;24220;48.168;14.024;2023-06-26T13:30:28;4.40;;;3.83;;
38435;SDS011;24220;48.168;14.024;2023-06-26T13:32:58;3.70;;;3.40;;
38435;SDS011;24220;48.168;14.024;2023-06-26T13:35:26;4.30;;;3.90;;
38435;SDS011;24220;48.168;14.024;2023-06-26T13:37:56;4.03;;;3.72;;
38435;SDS011;24220;48.168;14.024;2023-06-26T13:40:23;3.92;;;3.58;;
38435;SDS011;24220;48.168;14.024;2023-06-26T13:42:50;4.05;;;3.58;;
38435;SDS011;24220;48.168;14.024;2023-06-26T13:45:18;3.50;;;3.20;;
38435;SDS011;24220;48.168;14.024;2023-06-26T13:47:57;4.25;;;3.60;;
38435;SDS011;24220;48.168;14.024;2023-06-26T13:50:25;3.60;;;3.30;;
38435;SDS011;24220;48.168;14.024;2023-06-26T13:53:03;3.75;;;3.45;;
38435;SDS011;24220;48.168;14.024;2023-06-26T13:55:31;3.75;;;3.45;;
38435;SDS011;24220;48.168;14.024;2023-06-26T13:58:00;5.18;;;3.33;;
38435;SDS011;24220;48.168;14.024;2023-06-26T14:00:31;4.45;;;3.25;;
38435;SDS011;24220;48.168;14.024;2023-06-26T14:03:00;3.90;;;3.60;;
38435;SDS011;24220;48.168;14.024;2023-06-26T14:05:30;3.67;;;3.37;;
38435;SDS011;24220;48.168;14.024;2023-06-26T14:10:31;3.40;;;3.10;;
38435;SDS011;24220;48.168;14.024;2023-06-26T14:13:02;3.20;;;2.90;;
38435;SDS011;24220;48.168;14.024;2023-06-26T14:15:30;3.53;;;3.22;;
38435;SDS011;24220;48.168;14.024;2023-06-26T14:17:58;3.60;;;3.30;;
38435;SDS011;24220;48.168;14.024;2023-06-26T14:20:26;3.50;;;3.20;;
38435;SDS011;24220;48.168;14.024;2023-06-26T14:22:54;3.92;;;2.92;;
38435;SDS011;24220;48.168;14.024;2023-06-26T14:25:21;3.53;;;3.22;;
38435;SDS011;24220;48.168;14.024;2023-06-26T14:27:51;3.95;;;3.55;;
38435;SDS011;24220;48.168;14.024;2023-06-26T14:30:18;3.97;;;3.67;;
38435;SDS011;24220;48.168;14.024;2023-06-26T14:32:48;4.18;;;3.78;;
38435;SDS011;24220;48.168;14.024;2023-06-26T14:35:18;3.78;;;3.47;;
38435;SDS011;24220;48.168;14.024;2023-06-26T14:37:47;3.65;;;3.35;;
38435;SDS011;24220;48.168;14.024;2023-06-26T14:40:15;3.30;;;3.00;;
38435;SDS011;24220;48.168;14.024;2023-06-26T14:42:43;3.50;;;3.20;;
38435;SDS011;24220;48.168;14.024;2023-06-26T14:45:12;3.53;;;3.22;;
38435;SDS011;24220;48.168;14.024;2023-06-26T14:47:40;3.58;;;3.28;;
38435;SDS011;24220;48.168;14.024;2023-06-26T14:50:10;3.53;;;3.17;;
38435;SDS011;24220;48.168;14.024;2023-06-26T14:52:42;3.33;;;3.08;;
38435;SDS011;24220;48.168;14.024;2023-06-26T14:55:09;4.80;;;3.38;;
38435;SDS011;24220;48.168;14.024;2023-06-26T14:57:37;4.30;;;3.80;;
38435;SDS011;24220;48.168;14.024;2023-06-26T15:00:04;4.72;;;3.60;;
38435;SDS011;24220;48.168;14.024;2023-06-26T15:02:32;3.90;;;3.60;;
38435;SDS011;24220;48.168;14.024;2023-06-26T15:05:00;3.40;;;3.10;;
38435;SDS011;24220;48.168;14.024;2023-06-26T15:07:30;3.28;;;2.97;;
38435;SDS011;24220;48.168;14.024;2023-06-26T15:09:58;3.40;;;3.10;;
38435;SDS011;24220;48.168;14.024;2023-06-26T15:12:28;5.97;;;2.80;;